Time;durP1;ratioP1;P1;durP2;ratioP2;P2;SDS_P1;SDS_P2;PMS_P1;PMS_P2;Temp;Humidity;BMP_temperature;BMP_pressure;BME280_temperature;BME280_humidity;BME280_pressure;Samples;Min_cycle;Max_cycle;Signal;HPM_P1;HPM_P2
2023/09/24 00:02:21;;;;;;;4.50;4.00;;;13.70;99.90;;;;;;5036242;28;20444;-59
2023/09/24 00:04:48;;;;;;;9.10;4.37;;;;;;;;;;5036480;28;20457;-58
2023/09/24 00:07:18;;;;;;;5.83;3.57;;;13.90;99.90;;;;;;5036408;28;20476;-59
2023/09/24 00:09:45;;;;;;;4.73;3.23;;;13.70;99.90;;;;;;5036610;28;20514;-60
2023/09/24 00:12:12;;;;;;;4.80;3.73;;;13.60;99.90;;;;;;5036785;28;20445;-59
2023/09/24 00:14:41;;;;;;;6.13;3.60;;;13.70;99.90;;;;;;5036389;28;20497;-58
2023/09/24 00:17:09;;;;;;;5.00;4.13;;;13.60;99.90;;;;;;5037202;28;20476;-56
2023/09/24 00:19:37;;;;;;;6.10;4.20;;;13.60;99.90;;;;;;5037027;28;20468;-54
2023/09/24 00:22:04;;;;;;;15.37;4.23;;;13.60;99.90;;;;;;5036678;28;20453;-56
2023/09/24 00:24:35;;;;;;;4.77;3.90;;;13.50;99.90;;;;;;5036451;28;20456;-59
2023/09/24 00:27:02;;;;;;;5.63;4.27;;;13.50;99.90;;;;;;5039318;28;20440;-56
2023/09/24 00:29:29;;;;;;;3.93;3.33;;;13.50;99.90;;;;;;5040576;28;20957;-60
2023/09/24 00:31:56;;;;;;;6.37;3.60;;;13.10;99.90;;;;;;5039843;28;20452;-56
2023/09/24 00:34:23;;;;;;;4.83;3.53;;;13.30;99.90;;;;;;5040140;28;20475;-56
2023/09/24 00:36:50;;;;;;;4.07;3.30;;;13.40;99.90;;;;;;5039987;28;20479;-58
2023/09/24 00:39:17;;;;;;;4.43;3.63;;;13.50;99.90;;;;;;5040254;28;20604;-54
2023/09/24 00:41:46;;;;;;;4.50;3.60;;;13.60;99.90;;;;;;5039610;28;20425;-54
2023/09/24 00:44:14;;;;;;;5.33;3.63;;;13.50;99.90;;;;;;5040102;28;20440;-59
2023/09/24 00:46:42;;;;;;;3.80;3.37;;;;;;;;;;5039936;28;20417;-59
2023/09/24 00:49:09;;;;;;;6.17;3.57;;;13.30;99.90;;;;;;5039593;28;20445;-57
2023/09/24 00:51:36;;;;;;;3.93;3.33;;;13.40;99.90;;;;;;5040097;28;20495;-59
2023/09/24 00:54:03;;;;;;;4.90;3.50;;;13.30;99.90;;;;;;5039603;28;20512;-54
2023/09/24 00:56:30;;;;;;;4.70;3.43;;;12.70;99.90;;;;;;5039547;28;20468;-54
2023/09/24 00:58:59;;;;;;;4.83;3.97;;;13.30;99.90;;;;;;5039535;28;20445;-58
2023/09/24 01:01:29;;;;;;;4.20;3.30;;;13.10;99.90;;;;;;5039438;28;20469;-56
2023/09/24 01:03:56;;;;;;;5.47;4.30;;;12.70;99.90;;;;;;5039895;28;20449;-60
2023/09/24 01:06:23;;;;;;;4.23;3.53;;;13.10;99.90;;;;;;5039638;28;20540;-52
2023/09/24 01:08:50;;;;;;;3.97;3.57;;;13.10;99.90;;;;;;5039171;28;20472;-54
2023/09/24 01:11:17;;;;;;;5.20;3.27;;;13.10;99.90;;;;;;5039947;28;20460;-59
2023/09/24 01:13:45;;;;;;;6.50;6.00;;;13.10;99.90;;;;;;5039325;28;20472;-60
2023/09/24 01:16:14;;;;;;;5.53;3.40;;;13.30;99.90;;;;;;5039637;28;20499;-57
2023/09/24 01:18:44;;;;;;;4.33;3.57;;;12.70;99.90;;;;;;5039928;28;20425;-59
2023/09/24 01:21:13;;;;;;;3.83;3.43;;;13.00;99.90;;;;;;5039327;28;20508;-57
2023/09/24 01:23:42;;;;;;;8.20;3.80;;;12.80;99.90;;;;;;5039205;28;20441;-59
2023/09/24 01:26:10;;;;;;;4.57;3.70;;;12.90;99.90;;;;;;5038798;28;21011;-59
2023/09/24 01:28:39;;;;;;;5.73;3.30;;;12.80;99.90;;;;;;5038502;28;20492;-58
2023/09/24 01:31:06;;;;;;;4.30;3.50;;;12.90;99.90;;;;;;5038946;28;20473;-59
2023/09/24 01:33:36;;;;;;;5.70;3.13;;;12.60;99.90;;;;;;5038529;28;20476;-58
2023/09/24 01:36:03;;;;;;;4.30;3.57;;;12.90;99.90;;;;;;5038668;28;20515;-59
2023/09/24 01:38:30;;;;;;;9.23;3.70;;;;;;;;;;5037669;28;20441;-58
2023/09/24 01:41:00;;;;;;;6.90;3.80;;;12.90;99.90;;;;;;5038567;28;20511;-57
2023/09/24 01:43:27;;;;;;;4.87;3.40;;;12.90;99.90;;;;;;5038869;28;20493;-58
2023/09/24 01:45:54;;;;;;;5.07;3.63;;;13.10;99.90;;;;;;5038105;28;20465;-60
2023/09/24 01:48:21;;;;;;;4.47;3.57;;;12.90;99.90;;;;;;5038203;28;20421;-59
2023/09/24 01:50:48;;;;;;;5.00;3.93;;;12.80;99.90;;;;;;5038390;28;20433;-58
2023/09/24 01:53:16;;;;;;;4.20;3.37;;;13.00;99.90;;;;;;5038453;28;20456;-60
2023/09/24 01:55:43;;;;;;;7.60;3.50;;;12.90;99.90;;;;;;5037880;28;20504;-58
2023/09/24 01:58:11;;;;;;;3.70;3.30;;;12.70;99.90;;;;;;5038347;28;20443;-59
2023/09/24 02:00:39;;;;;;;4.23;3.73;;;13.00;99.90;;;;;;5037985;28;20449;-58
2023/09/24 02:03:09;;;;;;;5.10;4.30;;;12.80;99.90;;;;;;5038271;28;20521;-59
2023/09/24 02:05:39;;;;;;;5.07;3.20;;;12.90;99.90;;;;;;5038178;28;20414;-59
2023/09/24 02:08:08;;;;;;;3.47;3.17;;;13.00;99.90;;;;;;5038293;28;20476;-56
2023/09/24 02:10:39;;;;;;;7.03;3.40;;;12.90;99.90;;;;;;5038196;28;20465;-59
2023/09/24 02:13:07;;;;;;;4.27;3.03;;;12.80;99.90;;;;;;5038103;28;20414;-57
2023/09/24 02:15:35;;;;;;;4.80;3.70;;;12.90;99.90;;;;;;5038199;28;20480;-58
2023/09/24 02:18:04;;;;;;;3.63;3.10;;;12.50;99.90;;;;;;5038015;28;20442;-59
2023/09/24 02:20:32;;;;;;;3.77;3.37;;;12.90;99.90;;;;;;5037502;28;20449;-60
2023/09/24 02:23:01;;;;;;;4.40;3.77;;;12.70;99.90;;;;;;5037422;28;20441;-59
2023/09/24 02:25:29;;;;;;;4.17;3.33;;;13.00;99.90;;;;;;5037625;28;20457;-58
2023/09/24 02:27:57;;;;;;;5.33;3.90;;;13.00;99.90;;;;;;5037870;28;20507;-59
2023/09/24 02:30:25;;;;;;;3.90;3.13;;;13.00;99.90;;;;;;5038191;28;20429;-59
2023/09/24 02:32:53;;;;;;;4.17;3.77;;;12.90;99.90;;;;;;5037788;28;20428;-60
2023/09/24 02:35:20;;;;;;;4.60;4.10;;;12.70;99.90;;;;;;5038256;28;20464;-59
2023/09/24 02:37:51;;;;;;;3.93;3.13;;;12.90;99.90;;;;;;5037903;28;20449;-59
2023/09/24 02:40:22;;;;;;;4.83;3.43;;;13.60;99.90;;;;;;5037631;28;20433;-58
2023/09/24 02:42:51;;;;;;;7.03;3.50;;;12.90;99.90;;;;;;5037681;28;20473;-60
2023/09/24 02:45:18;;;;;;;6.27;3.27;;;12.90;99.90;;;;;;5038361;28;20421;-59
2023/09/24 02:47:47;;;;;;;5.80;3.97;;;12.90;99.90;;;;;;5036813;28;20491;-57
2023/09/24 02:50:16;;;;;;;5.63;4.40;;;12.90;99.90;;;;;;5037455;28;20430;-59
2023/09/24 02:52:43;;;;;;;4.33;3.90;;;12.80;99.90;;;;;;5036962;28;20472;-59
2023/09/24 02:55:12;;;;;;;4.40;3.67;;;12.90;99.90;;;;;;5037305;28;20483;-59
2023/09/24 02:57:39;;;;;;;5.77;3.83;;;12.90;99.90;;;;;;5037405;28;20469;-61
2023/09/24 03:00:12;;;;;;;7.87;5.53;;;12.90;99.90;;;;;;5037800;28;20452;-57
2023/09/24 03:02:39;;;;;;;6.20;4.40;;;;;;;;;;5037749;28;20473;-58
2023/09/24 03:05:08;;;;;;;5.90;4.43;;;12.90;99.90;;;;;;5037615;28;20441;-59
2023/09/24 03:07:38;;;;;;;8.20;6.20;;;13.00;99.90;;;;;;5037133;28;20477;-60
2023/09/24 03:10:07;;;;;;;4.77;3.97;;;13.10;99.90;;;;;;5037411;28;20461;-59
2023/09/24 03:12:34;;;;;;;5.87;3.60;;;13.00;99.90;;;;;;5037839;28;20471;-57
2023/09/24 03:15:02;;;;;;;4.43;3.40;;;13.00;99.90;;;;;;5037582;28;20481;-58
2023/09/24 03:17:29;;;;;;;4.97;3.10;;;13.00;99.90;;;;;;5037453;28;20497;-58
2023/09/24 03:19:56;;;;;;;6.77;3.67;;;13.10;99.90;;;;;;5037430;28;20434;-60
2023/09/24 03:22:24;;;;;;;4.83;3.83;;;13.00;99.90;;;;;;5037519;28;20457;-57
2023/09/24 03:24:55;;;;;;;5.27;4.70;;;13.10;99.90;;;;;;5036435;28;20433;-59
2023/09/24 03:27:22;;;;;;;3.30;3.00;;;13.00;99.90;;;;;;5036563;28;20465;-59
2023/09/24 03:29:48;;;;;;;7.53;3.90;;;13.30;99.90;;;;;;5037233;28;20459;-58
2023/09/24 03:32:15;;;;;;;3.60;3.30;;;13.40;99.90;;;;;;5036504;28;20460;-58
2023/09/24 03:34:44;;;;;;;4.60;3.90;;;13.30;99.90;;;;;;5036955;28;20453;-58
2023/09/24 03:37:14;;;;;;;4.50;3.63;;;13.30;99.90;;;;;;5037258;28;20468;-59
2023/09/24 03:39:41;;;;;;;5.17;3.03;;;13.50;99.90;;;;;;5036971;28;20460;-55
2023/09/24 03:42:09;;;;;;;5.70;3.80;;;13.40;99.90;;;;;;5036836;28;20448;-56
2023/09/24 03:44:38;;;;;;;4.37;3.73;;;13.40;99.90;;;;;;5037060;28;20484;-58
2023/09/24 03:47:05;;;;;;;5.40;3.97;;;13.50;99.90;;;;;;5037357;28;20445;-57
2023/09/24 03:49:32;;;;;;;5.77;4.47;;;13.50;99.90;;;;;;5037609;28;20468;-58
2023/09/24 03:51:59;;;;;;;6.30;3.90;;;13.70;99.90;;;;;;5037038;28;20444;-58
2023/09/24 03:54:27;;;;;;;4.20;3.43;;;13.70;99.90;;;;;;5037154;28;20540;-58
2023/09/24 03:56:54;;;;;;;6.10;3.93;;;13.60;99.90;;;;;;5037511;28;20848;-57
2023/09/24 03:59:23;;;;;;;6.03;3.40;;;13.60;99.90;;;;;;5037197;28;20433;-55
2023/09/24 04:01:50;;;;;;;7.60;3.20;;;13.70;99.90;;;;;;5039768;28;20463;-55
2023/09/24 04:04:17;;;;;;;10.07;3.67;;;13.60;99.90;;;;;;5040389;28;20591;-59
2023/09/24 04:06:44;;;;;;;3.50;3.20;;;13.70;99.90;;;;;;5040948;28;20457;-58
2023/09/24 04:09:12;;;;;;;3.50;3.20;;;13.30;99.90;;;;;;5041305;28;20464;-60
2023/09/24 04:11:39;;;;;;;6.70;4.20;;;13.70;99.90;;;;;;5040330;28;20442;-57
2023/09/24 04:14:15;;;;;;;3.70;3.40;;;13.80;99.90;;;;;;5040451;28;20472;-58
2023/09/24 04:16:43;;;;;;;3.97;3.63;;;13.80;99.90;;;;;;5040728;28;20457;-58
2023/09/24 04:19:10;;;;;;;4.20;3.80;;;13.90;99.90;;;;;;5040104;28;20496;-59
2023/09/24 04:21:37;;;;;;;5.67;5.17;;;13.90;99.90;;;;;;5040487;28;20448;-57
2023/09/24 04:24:04;;;;;;;5.00;4.50;;;13.90;99.90;;;;;;5039927;28;20453;-58
2023/09/24 04:26:31;;;;;;;5.83;3.67;;;13.90;99.90;;;;;;5040597;28;20429;-58
2023/09/24 04:28:58;;;;;;;10.30;3.73;;;14.00;99.90;;;;;;5040074;28;20453;-58
2023/09/24 04:31:28;;;;;;;5.87;4.00;;;14.30;99.90;;;;;;5039936;28;20468;-59
2023/09/24 04:33:56;;;;;;;3.50;3.20;;;14.00;99.90;;;;;;5040193;28;20696;-57
2023/09/24 04:36:23;;;;;;;4.63;3.53;;;;;;;;;;5040384;28;20587;-58
2023/09/24 04:38:53;;;;;;;5.73;3.87;;;;;;;;;;5039884;28;20513;-58
2023/09/24 04:41:20;;;;;;;5.03;4.13;;;14.10;99.90;;;;;;5040494;28;20429;-59
2023/09/24 04:43:47;;;;;;;3.30;3.10;;;;;;;;;;5040013;28;20463;-59
2023/09/24 04:46:14;;;;;;;5.30;3.47;;;13.70;99.90;;;;;;5039610;28;20440;-58
2023/09/24 04:48:41;;;;;;;10.13;3.73;;;;;;;;;;5039938;28;20452;-59
2023/09/24 04:51:10;;;;;;;8.03;3.63;;;14.20;99.90;;;;;;5039711;28;20476;-59
2023/09/24 04:53:39;;;;;;;5.63;4.40;;;14.00;99.90;;;;;;5039884;28;20500;-60
2023/09/24 04:56:07;;;;;;;5.50;3.40;;;13.80;99.90;;;;;;5039940;28;20457;-59
2023/09/24 04:58:38;;;;;;;5.47;4.23;;;14.00;99.90;;;;;;5039899;28;20532;-60
2023/09/24 05:01:05;;;;;;;8.27;6.23;;;14.30;99.90;;;;;;5039704;28;20449;-58
2023/09/24 05:03:32;;;;;;;10.43;6.27;;;14.00;99.90;;;;;;5039773;28;20483;-59
2023/09/24 05:05:59;;;;;;;13.37;8.63;;;14.30;99.90;;;;;;5039500;28;20449;-59
2023/09/24 05:08:28;;;;;;;12.93;7.23;;;14.00;99.90;;;;;;5039409;28;20452;-59
2023/09/24 05:10:55;;;;;;;13.30;7.90;;;14.20;99.90;;;;;;5039605;28;20485;-60
2023/09/24 05:13:22;;;;;;;12.27;8.80;;;14.20;99.90;;;;;;5039089;28;20437;-59
2023/09/24 05:15:53;;;;;;;12.63;8.90;;;14.30;99.90;;;;;;5039146;28;20468;-59
2023/09/24 05:18:21;;;;;;;11.37;8.40;;;14.20;99.90;;;;;;5038958;28;20456;-57
2023/09/24 05:20:47;;;;;;;9.63;8.37;;;14.40;99.90;;;;;;5039159;28;20444;-59
2023/09/24 05:23:14;;;;;;;9.00;8.03;;;14.40;99.90;;;;;;5038982;28;20461;-59
2023/09/24 05:25:42;;;;;;;9.93;8.93;;;14.50;99.90;;;;;;5039067;28;20437;-57
2023/09/24 05:28:09;;;;;;;10.10;8.97;;;14.50;99.90;;;;;;5039184;28;20445;-58
2023/09/24 05:30:36;;;;;;;14.00;8.57;;;;;;;;;;5038814;28;20938;-59
2023/09/24 05:33:04;;;;;;;11.50;10.30;;;14.40;99.90;;;;;;5038991;28;20449;-59
2023/09/24 05:35:31;;;;;;;16.20;8.77;;;14.20;99.90;;;;;;5039349;28;20504;-60
2023/09/24 05:37:58;;;;;;;10.83;7.93;;;14.40;99.90;;;;;;5039143;28;20449;-58
2023/09/24 05:40:25;;;;;;;11.27;8.73;;;14.30;99.90;;;;;;5038830;28;20465;-56
2023/09/24 05:42:53;;;;;;;9.70;8.47;;;14.40;99.90;;;;;;5039058;28;20429;-56
2023/09/24 05:45:20;;;;;;;13.47;9.17;;;;;;;;;;5038665;28;20489;-60
2023/09/24 05:47:47;;;;;;;14.60;9.47;;;14.30;99.90;;;;;;5038158;28;20471;-59
2023/09/24 05:50:14;;;;;;;15.13;9.53;;;14.40;99.90;;;;;;5038018;28;20556;-59
2023/09/24 05:52:41;;;;;;;10.00;8.47;;;14.20;99.90;;;;;;5037916;28;20467;-58
2023/09/24 05:55:09;;;;;;;19.00;8.57;;;14.20;99.90;;;;;;5037779;28;20613;-60
2023/09/24 05:57:37;;;;;;;17.23;8.87;;;14.30;99.90;;;;;;5038033;28;20445;-60
2023/09/24 06:00:08;;;;;;;10.77;8.33;;;14.30;99.90;;;;;;5037939;28;20469;-60
2023/09/24 06:02:35;;;;;;;14.23;9.90;;;14.20;99.90;;;;;;5038395;28;20452;-59
2023/09/24 06:05:02;;;;;;;10.13;9.03;;;;;;;;;;5038585;28;20446;-60
2023/09/24 06:07:29;;;;;;;16.00;9.97;;;14.20;99.90;;;;;;5037517;28;20433;-58
2023/09/24 06:09:56;;;;;;;10.97;8.93;;;14.10;99.90;;;;;;5037825;28;20449;-60
2023/09/24 06:12:24;;;;;;;10.27;8.70;;;;;;;;;;5038289;28;20452;-60
2023/09/24 06:14:51;;;;;;;11.00;8.10;;;14.20;99.90;;;;;;5038601;28;20499;-58
2023/09/24 06:17:19;;;;;;;11.53;8.50;;;14.10;99.90;;;;;;5038024;28;20486;-60
2023/09/24 06:19:47;;;;;;;14.70;8.00;;;;;;;;;;5038376;28;20473;-57
2023/09/24 06:22:13;;;;;;;9.00;8.07;;;14.20;99.90;;;;;;5038442;28;20449;-58
2023/09/24 06:24:40;;;;;;;8.33;7.23;;;14.40;99.90;;;;;;5037766;28;20477;-59
2023/09/24 06:27:07;;;;;;;16.10;9.30;;;;;;;;;;5038296;28;20472;-59
2023/09/24 06:29:36;;;;;;;9.13;7.67;;;14.30;99.90;;;;;;5037868;28;20441;-60
2023/09/24 06:32:03;;;;;;;10.13;8.57;;;;;;;;;;5037261;28;20460;-59
2023/09/24 06:34:35;;;;;;;12.10;8.90;;;14.20;99.90;;;;;;5037244;28;20449;-59
2023/09/24 06:37:02;;;;;;;12.87;8.83;;;14.20;99.90;;;;;;5037620;28;20473;-58
2023/09/24 06:39:29;;;;;;;11.07;9.37;;;14.50;99.90;;;;;;5037273;28;20457;-58
2023/09/24 06:41:56;;;;;;;11.10;9.33;;;14.60;99.90;;;;;;5037668;28;20436;-61
2023/09/24 06:44:24;;;;;;;8.57;7.47;;;;;;;;;;5037623;28;20484;-58
2023/09/24 06:46:51;;;;;;;13.20;9.00;;;14.50;99.90;;;;;;5037701;28;20457;-58
2023/09/24 06:49:18;;;;;;;10.57;9.00;;;14.50;99.90;;;;;;5037466;28;20457;-58
2023/09/24 06:51:47;;;;;;;11.10;7.50;;;14.80;99.90;;;;;;5037503;28;20452;-58
2023/09/24 06:54:13;;;;;;;10.37;7.67;;;14.60;99.90;;;;;;5037625;28;20487;-58
2023/09/24 06:56:40;;;;;;;10.50;8.57;;;14.60;99.90;;;;;;5037636;28;20477;-58
2023/09/24 06:59:09;;;;;;;8.63;6.90;;;14.80;99.90;;;;;;5037590;28;20449;-59
2023/09/24 07:01:37;;;;;;;10.33;8.50;;;14.80;99.90;;;;;;5037598;28;20428;-58
2023/09/24 07:04:05;;;;;;;8.53;7.73;;;14.80;99.90;;;;;;5037462;28;20449;-58
2023/09/24 07:06:32;;;;;;;8.83;7.23;;;14.90;99.90;;;;;;5037176;28;20475;-60
2023/09/24 07:09:01;;;;;;;8.20;7.27;;;14.90;99.90;;;;;;5037466;28;20429;-60
2023/09/24 07:11:31;;;;;;;9.67;7.43;;;15.00;99.90;;;;;;5037181;28;20491;-59
2023/09/24 07:13:58;;;;;;;8.90;6.50;;;15.10;99.90;;;;;;5037117;28;20623;-60
2023/09/24 07:16:26;;;;;;;7.00;6.30;;;15.10;99.90;;;;;;5037240;28;20493;-58
2023/09/24 07:18:54;;;;;;;11.37;6.50;;;15.20;99.90;;;;;;5037205;28;20894;-57
2023/09/24 07:21:24;;;;;;;7.47;6.17;;;15.20;99.90;;;;;;5037160;28;20465;-57
2023/09/24 07:23:52;;;;;;;9.77;7.67;;;;;;;;;;5037281;28;20437;-59
2023/09/24 07:26:20;;;;;;;8.00;7.20;;;15.10;99.90;;;;;;5037026;28;20463;-56
2023/09/24 07:28:47;;;;;;;9.50;6.63;;;15.10;99.90;;;;;;5037499;28;20448;-59
2023/09/24 07:31:15;;;;;;;9.60;7.10;;;15.20;99.90;;;;;;5037192;28;20488;-58
2023/09/24 07:33:44;;;;;;;8.60;7.20;;;15.40;99.90;;;;;;5037431;28;20499;-59
2023/09/24 07:36:11;;;;;;;6.27;5.67;;;15.40;99.90;;;;;;5037203;28;20487;-58
2023/09/24 07:38:39;;;;;;;6.03;5.43;;;15.50;99.90;;;;;;5039242;28;20479;-58
2023/09/24 07:41:07;;;;;;;9.13;7.33;;;15.60;99.90;;;;;;5039361;28;20600;-59
2023/09/24 07:43:35;;;;;;;7.70;6.47;;;15.70;99.90;;;;;;5038817;28;20453;-59
2023/09/24 07:46:03;;;;;;;9.37;6.90;;;15.80;99.90;;;;;;5038558;28;20465;-59
2023/09/24 07:48:30;;;;;;;6.70;5.83;;;15.80;99.90;;;;;;5038801;28;20437;-59
2023/09/24 07:50:57;;;;;;;5.57;4.63;;;16.10;99.90;;;;;;5038701;28;20480;-58
2023/09/24 07:53:24;;;;;;;7.23;4.83;;;16.00;99.90;;;;;;5038404;28;20441;-59
2023/09/24 07:55:55;;;;;;;5.40;4.87;;;16.00;99.90;;;;;;5038716;28;20496;-59
2023/09/24 07:58:23;;;;;;;6.93;5.80;;;15.80;99.90;;;;;;5038277;28;20440;-60
2023/09/24 08:00:52;;;;;;;7.93;6.60;;;16.20;99.90;;;;;;5038432;28;20468;-59
2023/09/24 08:03:19;;;;;;;9.37;5.80;;;16.20;99.90;;;;;;5038233;28;20461;-59
2023/09/24 08:05:46;;;;;;;7.60;6.07;;;16.20;99.90;;;;;;5039386;28;20472;-60
2023/09/24 08:08:13;;;;;;;6.33;5.73;;;16.50;99.90;;;;;;5039029;28;20436;-60
2023/09/24 08:10:40;;;;;;;7.00;6.30;;;;;;;;;;5038369;28;20445;-58
2023/09/24 08:13:07;;;;;;;6.97;6.30;;;16.70;99.90;;;;;;5038501;28;20440;-58
2023/09/24 08:15:36;;;;;;;6.03;5.30;;;16.80;99.90;;;;;;5038173;28;20440;-60
2023/09/24 08:18:09;;;;;;;6.80;6.23;;;16.50;99.90;;;;;;5037776;28;20464;-60
2023/09/24 08:20:37;;;;;;;9.80;5.80;;;16.80;99.90;;;;;;5037279;28;20444;-59
2023/09/24 08:23:04;;;;;;;5.80;5.20;;;16.90;99.90;;;;;;5037227;28;20448;-60
2023/09/24 08:25:31;;;;;;;7.00;5.37;;;;;;;;;;5037101;28;20448;-58
2023/09/24 08:28:04;;;;;;;6.40;5.80;;;16.90;99.90;;;;;;5037575;28;20476;-60
2023/09/24 08:30:32;;;;;;;6.10;5.50;;;16.60;99.90;;;;;;5037391;28;20425;-60
2023/09/24 08:33:00;;;;;;;5.53;5.03;;;16.70;99.90;;;;;;5037653;28;20452;-60
2023/09/24 08:35:28;;;;;;;5.80;5.30;;;17.00;99.90;;;;;;5037210;28;20461;-60
2023/09/24 08:37:55;;;;;;;6.43;5.50;;;;;;;;;;5037027;28;20491;-58
2023/09/24 08:40:22;;;;;;;8.20;5.00;;;17.80;99.90;;;;;;5036802;28;20444;-59
2023/09/24 08:42:51;;;;;;;7.33;4.53;;;20.20;99.90;;;;;;5036918;28;20456;-60
2023/09/24 08:45:19;;;;;;;7.23;4.33;;;20.20;99.90;;;;;;5037349;28;20460;-59
2023/09/24 08:47:47;;;;;;;5.33;4.83;;;20.30;99.90;;;;;;5036208;28;20473;-58
2023/09/24 08:50:15;;;;;;;4.60;4.20;;;19.90;99.90;;;;;;5037273;28;20471;-60
2023/09/24 08:52:45;;;;;;;6.57;4.60;;;20.40;99.90;;;;;;5036888;28;20543;-59
2023/09/24 08:55:14;;;;;;;5.20;4.70;;;20.80;99.90;;;;;;5037297;28;20924;-59
2023/09/24 08:57:43;;;;;;;8.10;4.63;;;20.90;99.90;;;;;;5036752;28;20696;-59
2023/09/24 09:00:12;;;;;;;5.03;3.50;;;21.10;99.90;;;;;;5037200;28;20441;-60
2023/09/24 09:02:40;;;;;;;7.23;4.10;;;22.00;99.90;;;;;;5037329;28;20464;-60
2023/09/24 09:05:11;;;;;;;4.23;3.40;;;22.60;99.90;;;;;;5036985;28;20441;-59
2023/09/24 09:07:38;;;;;;;3.47;3.00;;;22.70;99.90;;;;;;5037769;28;20514;-60
2023/09/24 09:10:07;;;;;;;4.20;3.00;;;23.70;99.90;;;;;;5037918;28;20441;-60
2023/09/24 09:12:35;;;;;;;4.80;3.30;;;;;;;;;;5037553;28;20477;-60
2023/09/24 09:15:02;;;;;;;8.30;3.50;;;23.90;99.90;;;;;;5037310;28;20456;-59
2023/09/24 09:17:41;;;;;;;4.10;3.07;;;23.10;99.90;;;;;;5037779;28;20523;-60
2023/09/24 09:20:08;;;;;;;3.67;3.07;;;22.50;99.90;;;;;;5037754;28;20429;-59
2023/09/24 09:22:36;;;;;;;4.03;3.40;;;22.10;99.90;;;;;;5036984;28;20469;-60
2023/09/24 09:25:07;;;;;;;3.43;3.20;;;21.70;99.90;;;;;;5037222;28;20456;-59
2023/09/24 09:27:34;;;;;;;5.17;3.43;;;21.20;99.90;;;;;;5037337;28;20492;-59
2023/09/24 09:30:15;;;;;;;6.33;3.50;;;21.20;99.90;;;;;;5037171;28;20583;-59
2023/09/24 09:32:42;;;;;;;6.73;3.20;;;;;;;;;;5036597;28;20473;-60
2023/09/24 09:35:09;;;;;;;4.83;3.13;;;22.70;99.90;;;;;;5036965;28;20458;-59
2023/09/24 09:37:36;;;;;;;3.60;3.30;;;;;;;;;;5036514;28;20469;-59
2023/09/24 09:40:04;;;;;;;3.63;3.13;;;;;;;;;;5036537;28;20464;-59
2023/09/24 09:42:33;;;;;;;4.63;2.80;;;25.60;99.90;;;;;;5037209;28;20477;-60
2023/09/24 09:45:03;;;;;;;3.60;2.90;;;25.50;99.90;;;;;;5037423;28;20512;-60
2023/09/24 09:47:34;;;;;;;2.70;2.50;;;27.00;94.90;;;;;;5037481;28;20468;-59
2023/09/24 09:50:01;;;;;;;5.40;2.87;;;;;;;;;;5037689;28;20484;-61
2023/09/24 09:52:34;;;;;;;5.00;2.47;;;27.90;99.90;;;;;;5036795;28;20465;-60
2023/09/24 09:55:04;;;;;;;2.37;2.10;;;27.90;90.30;;;;;;5037519;28;20436;-59
2023/09/24 09:57:33;;;;;;;3.27;2.40;;;28.20;99.90;;;;;;5037353;28;20537;-61
2023/09/24 10:00:00;;;;;;;4.37;2.83;;;28.00;99.90;;;;;;5036902;28;20440;-59
2023/09/24 10:02:29;;;;;;;3.00;2.70;;;28.00;85.00;;;;;;5036716;28;20477;-59
2023/09/24 10:04:58;;;;;;;2.87;2.57;;;27.20;84.10;;;;;;5037616;28;20501;-58
2023/09/24 10:07:25;;;;;;;6.57;2.60;;;;;;;;;;5037206;28;20469;-60
2023/09/24 10:09:52;;;;;;;2.60;2.40;;;;;;;;;;5037065;28;20410;-60
2023/09/24 10:12:38;;;;;;;3.87;2.97;;;27.20;85.60;;;;;;5036946;28;20438;-60
2023/09/24 10:15:25;;;;;;;7.33;2.10;;;27.30;99.90;;;;;;5037023;28;20537;-61
2023/09/24 10:18:22;;;;;;;3.00;2.30;;;27.10;83.30;;;;;;5037017;28;20547;-59
2023/09/24 10:21:04;;;;;;;3.00;2.20;;;26.40;86.90;;;;;;5036049;28;20434;-59
2023/09/24 10:23:35;;;;;;;3.73;2.77;;;26.10;99.90;;;;;;5036563;28;20468;-59
2023/09/24 10:26:05;;;;;;;3.63;2.40;;;25.80;99.90;;;;;;5037110;28;20480;-58
2023/09/24 10:29:00;;;;;;;3.20;2.30;;;25.80;88.20;;;;;;5036477;28;20489;-60
2023/09/24 10:31:28;;;;;;;3.50;2.00;;;;;;;;;;5002239;28;20492;-59
2023/09/24 10:33:56;;;;;;;2.40;2.20;;;24.20;99.90;;;;;;5036130;28;20496;-59
2023/09/24 10:36:28;;;;;;;3.73;2.00;;;23.30;99.90;;;;;;5036232;28;20464;-59
2023/09/24 10:39:04;;;;;;;2.27;2.07;;;22.30;99.90;;;;;;5035993;28;20472;-59
2023/09/24 10:41:33;;;;;;;2.80;1.70;;;22.20;99.90;;;;;;5036150;28;20786;-60
2023/09/24 10:44:27;;;;;;;3.47;1.90;;;22.30;99.90;;;;;;5035791;28;20468;-60
2023/09/24 10:46:54;;;;;;;2.10;1.87;;;22.40;96.70;;;;;;5035560;28;20430;-55
2023/09/24 10:49:24;;;;;;;5.27;2.30;;;22.80;95.30;;;;;;5035783;28;20457;-60
2023/09/24 10:51:57;;;;;;;3.70;1.80;;;23.60;99.90;;;;;;5035651;28;20433;-59
2023/09/24 10:54:25;;;;;;;4.20;1.90;;;;;;;;;;5035996;28;20536;-61
2023/09/24 10:56:51;;;;;;;2.37;1.77;;;23.80;93.20;;;;;;5035877;28;20524;-59
2023/09/24 10:59:31;;;;;;;5.80;2.03;;;24.00;99.90;;;;;;5035283;28;20487;-61
2023/09/24 11:02:15;;;;;;;3.27;2.60;;;23.80;92.70;;;;;;5036066;28;20916;-60
2023/09/24 11:04:42;;;;;;;3.47;2.80;;;24.20;99.90;;;;;;5036697;28;20461;-60
2023/09/24 11:07:09;;;;;;;3.43;1.90;;;24.10;92.20;;;;;;5036765;28;20429;-60
2023/09/24 11:09:37;;;;;;;3.43;1.70;;;24.00;91.30;;;;;;5035870;28;20473;-57
2023/09/24 11:12:09;;;;;;;3.83;2.07;;;23.30;99.90;;;;;;5035613;28;20461;-60
2023/09/24 11:14:36;;;;;;;4.03;2.07;;;23.40;99.90;;;;;;5036064;28;20441;-59
2023/09/24 11:17:06;;;;;;;2.50;1.70;;;23.30;92.70;;;;;;5035740;28;20481;-58
2023/09/24 11:19:43;;;;;;;2.73;1.77;;;23.10;92.90;;;;;;5035683;28;20465;-60
2023/09/24 11:22:17;;;;;;;2.93;2.00;;;22.90;99.90;;;;;;5035669;28;20475;-59
2023/09/24 11:24:44;;;;;;;6.60;1.90;;;22.40;99.90;;;;;;5035980;28;20468;-60
2023/09/24 11:27:12;;;;;;;2.33;1.90;;;;;;;;;;5035410;28;20432;-61
2023/09/24 11:29:39;;;;;;;2.07;1.43;;;22.30;99.90;;;;;;5035198;28;20480;-60
2023/09/24 11:32:23;;;;;;;5.00;2.00;;;22.30;95.00;;;;;;5035609;28;20445;-59
2023/09/24 11:34:50;;;;;;;2.83;1.73;;;22.30;95.10;;;;;;5035216;28;20457;-62
2023/09/24 11:37:18;;;;;;;3.77;3.00;;;22.10;94.90;;;;;;5035378;28;20487;-60
2023/09/24 11:39:46;;;;;;;2.27;1.87;;;21.90;95.00;;;;;;5036058;28;20492;-59
2023/09/24 11:42:18;;;;;;;2.87;1.80;;;21.20;99.90;;;;;;5035893;28;20463;-59
2023/09/24 11:44:48;;;;;;;4.70;2.20;;;20.90;99.90;;;;;;5035368;28;20483;-59
2023/09/24 11:47:16;;;;;;;2.53;2.27;;;21.10;96.20;;;;;;5035367;28;20430;-62
2023/09/24 11:49:43;;;;;;;6.00;2.10;;;;;;;;;;5031833;28;20485;-59
2023/09/24 11:52:10;;;;;;;4.00;2.43;;;21.00;95.10;;;;;;5031603;28;20508;-59
2023/09/24 11:54:37;;;;;;;4.80;2.40;;;20.90;99.90;;;;;;5033650;28;20531;-56
2023/09/24 11:57:04;;;;;;;6.60;2.10;;;20.90;95.80;;;;;;5030027;28;20448;-60
2023/09/24 11:59:31;;;;;;;4.40;1.83;;;21.40;99.90;;;;;;5035183;28;20473;-61
2023/09/24 12:01:58;;;;;;;2.00;1.77;;;21.20;99.90;;;;;;5034059;28;20441;-59
2023/09/24 12:04:27;;;;;;;1.60;1.50;;;21.20;96.00;;;;;;5031681;28;20484;-57
2023/09/24 12:06:54;;;;;;;5.57;2.17;;;21.50;99.90;;;;;;5035505;28;20413;-56
2023/09/24 12:09:21;;;;;;;1.77;1.67;;;;;;;;;;5035735;28;20456;-58
2023/09/24 12:11:48;;;;;;;3.40;2.10;;;;;;;;;;5035986;28;20445;-58
2023/09/24 12:14:15;;;;;;;1.90;1.70;;;21.00;99.90;;;;;;5035051;28;20460;-60
2023/09/24 12:16:42;;;;;;;2.97;2.53;;;21.40;96.20;;;;;;5035571;28;20457;-60
2023/09/24 12:19:09;;;;;;;3.13;2.10;;;21.30;99.90;;;;;;5035552;28;20476;-57
2023/09/24 12:21:37;;;;;;;2.80;1.93;;;21.30;96.40;;;;;;5035828;28;20465;-60
2023/09/24 12:24:04;;;;;;;2.83;2.13;;;21.30;99.90;;;;;;5039187;28;20456;-58
2023/09/24 12:26:31;;;;;;;2.90;2.63;;;21.10;97.20;;;;;;5038970;28;20448;-56
2023/09/24 12:28:58;;;;;;;5.60;2.27;;;21.10;97.50;;;;;;5038780;28;20429;-58
2023/09/24 12:31:25;;;;;;;2.90;1.90;;;21.10;97.50;;;;;;5037986;28;20475;-60
2023/09/24 12:33:53;;;;;;;4.10;1.63;;;;;;;;;;5038162;28;20472;-60
2023/09/24 12:36:20;;;;;;;2.90;1.70;;;21.00;96.20;;;;;;5037675;28;20456;-60
2023/09/24 12:38:48;;;;;;;2.63;1.87;;;20.90;95.90;;;;;;5037889;28;20514;-59
2023/09/24 12:41:16;;;;;;;3.33;2.10;;;20.80;96.50;;;;;;5037819;28;20449;-58
2023/09/24 12:43:44;;;;;;;1.97;1.77;;;;;;;;;;5037505;28;20473;-59
2023/09/24 12:46:11;;;;;;;1.90;1.70;;;20.90;99.90;;;;;;5037744;28;20430;-60
2023/09/24 12:48:38;;;;;;;2.17;1.90;;;21.00;99.90;;;;;;5037820;28;20505;-59
2023/09/24 12:51:06;;;;;;;3.70;1.80;;;;;;;;;;5037312;28;20432;-59
2023/09/24 12:53:33;;;;;;;2.20;1.77;;;21.40;96.80;;;;;;5037725;28;20461;-60
2023/09/24 12:56:02;;;;;;;5.93;3.07;;;21.60;96.00;;;;;;5037884;28;20476;-60
2023/09/24 12:58:29;;;;;;;3.23;2.80;;;;;;;;;;5037261;28;20492;-59
2023/09/24 13:01:01;;;;;;;2.20;2.00;;;21.80;95.50;;;;;;5037237;28;20484;-56
2023/09/24 13:03:28;;;;;;;4.20;2.83;;;21.90;95.80;;;;;;5037303;28;20481;-60
2023/09/24 13:05:55;;;;;;;2.63;2.10;;;22.10;95.40;;;;;;5037658;28;20476;-59